METAR stanice u blizini

 

LYBE - Beograd / Surčin, Srbija
Ažurirano: 25/01/2020 12:00
Mist, Delimično oblačno
Mist, Delimično oblačno
 Pravac vetra varies
Vetar: varies 2 km/h
Temperatura: 7°C
Tačka rose: 0°C
Vlažnost: 61%
Pritisak: 1025 hPa
Pregled: Mist
Oblaci: Partly Cloudy
Vidljivost: 3 km
2020/01/25 11:00 LYBE 251100Z VRB01KT 2500 BR NSC 07/M00 Q1025 BECMG 4000
LYBT - Beograd / Batajnica, Srbija
Ažurirano: 25/01/2020 12:00
Mist, Delimično oblačno
Mist, Delimično oblačno
 Pravac vetra SSZ
Vetar: SSZ 4 km/h
Temperatura: 5°C
Tačka rose: -1°C
Vlažnost: 66%
Pritisak: 1025 hPa
Pregled: Mist
Oblaci: Partly Cloudy
Vidljivost: 3 km
2020/01/25 11:00 LYBT 251100Z 34002KT 3000 BR NSC 05/M01 Q1025 BECMG 5000
LYVR - Vršac, Srbija
Ažurirano: 25/01/2020 12:00
Vedro
Vedro
 Pravac vetra JJZ
Vetar: JJZ 15 km/h
Temperatura: 10°C
Osećaj hladnoće: 8°C
Tačka rose: -2°C
Vlažnost: 43%
Pritisak: 1024 hPa
Pregled: Vedro
Vidljivost: greater than 10 km
2020/01/25 11:00 LYVR 251100Z 21008KT 170V230 CAVOK 10/M02 Q1024 NOSIG
 
LYKV - Lađevci, Srbija
Ažurirano: 25/01/2020 12:00
Partly Cloudy
Partly Cloudy
 Pravac vetra calm
Vetar: Tišina
Temperatura: 5°C
Tačka rose: 1°C
Vlažnost: 76%
Pritisak: 1025 hPa
Oblaci: Partly Cloudy
Vidljivost: 6 km
2020/01/25 11:00 LYKV 251100Z 00000KT 6000 NSC 05/01 Q1025 NOSIG
LYNI - Niš, Srbija
Ažurirano: 25/01/2020 12:00
Vedro
Vedro
 Pravac vetra JJZ
Vetar: JJZ 6 km/h
Temperatura: 8°C
Tačka rose: -3°C
Vlažnost: 46%
Pritisak: 1025 hPa
Pregled: Vedro
Vidljivost: greater than 10 km
2020/01/25 11:00 LYNI 251100Z 21003KT 150V280 CAVOK 08/M03 Q1025 NOSIG
BKPR - Priština, Srbija
Ažurirano: 25/01/2020 12:00
Vedro
Vedro
 Pravac vetra varies
Vetar: varies 2 km/h
Temperatura: 6°C
Tačka rose: -4°C
Vlažnost: 49%
Pritisak: 1026 hPa
Pregled: Vedro
Vidljivost: greater than 10 km
2020/01/25 11:00 BKPR 251100Z VRB01KT CAVOK 06/M04 Q1026 NOSIG RMK 17010095
 
LHPP - Pecs / Pogany, Hungary
Ažurirano: 25/01/2020 11:45
Mist, Delimično oblačno
Mist, Delimično oblačno
 Pravac vetra IJI
Vetar: IJI 6 km/h
Temperatura: -2°C
Tačka rose: -2°C
Vlažnost: 100%
Pritisak: 1024 hPa
Pregled: Mist
Oblaci: Partly Cloudy
Vidljivost: 4 km
2020/01/25 10:45 LHPP 251045Z 12003KT 3500 BR NSC M02/M02 Q1024
LHUD - Szeged, Hungary
Ažurirano: 04/07/2019 01:45
NOT Current
Vedro
Vedro
 Pravac vetra S
Vetar: S 7 km/h
Temperatura: 18°C
Tačka rose: 13°C
Vlažnost: 73%
Pritisak: 1019 hPa
Pregled: Vedro
Vidljivost: greater than 10 km
2019/07/03 23:45 LHUD 032345Z 35004KT CAVOK 18/13 Q1019
LRTR - Timisoara, Romania
Ažurirano: 25/01/2020 12:00
Vedro
Vedro
 Pravac vetra calm
Vetar: Tišina
Temperatura: 5°C
Tačka rose: -3°C
Vlažnost: 57%
Pritisak: 1025 hPa
Pregled: Vedro
Vidljivost: greater than 10 km
2020/01/25 11:00 LRTR 251100Z 00000KT CAVOK 05/M03 Q1025 NOSIG
 
LRCV - Craiova, Romania
Ažurirano: 25/01/2020 12:00
Vedro
Vedro
 Pravac vetra ZJZ
Vetar: ZJZ 17 km/h
Temperatura: 12°C
Tačka rose: -3°C
Vlažnost: 35%
Pritisak: 1022 hPa
Pregled: Vedro
Vidljivost: greater than 10 km
2020/01/25 11:00 LRCV 251100Z 25009KT CAVOK 12/M03 Q1022
LBSF - Sofia, Bulgaria
Ažurirano: 25/01/2020 12:00
Partly Cloudy
Partly Cloudy
 Pravac vetra varies
Vetar: varies 4 km/h
Temperatura: 6°C
Tačka rose: -4°C
Vlažnost: 49%
Pritisak: 1025 hPa
Oblaci: Partly Cloudy
Vidljivost: 6 km
2020/01/25 11:00 LBSF 251100Z VRB02KT 6000 NSC 06/M04 Q1025 NOSIG
LWSK - Skoplje, Makedonija
Ažurirano: 25/01/2020 12:00
Vedro
Vedro
 Pravac vetra varies
Vetar: varies 2 km/h
Temperatura: 5°C
Tačka rose: -4°C
Vlažnost: 53%
Pritisak: 1027 hPa
Pregled: Vedro
Vidljivost: greater than 10 km
2020/01/25 11:00 LWSK 251100Z VRB01KT CAVOK 05/M04 Q1027 NOSIG
 
LYPG - Podgorica, Crna Gora
Ažurirano: 25/01/2020 12:00
Slaba kiša, Oblačno
Slaba kiša, Oblačno
 Pravac vetra Z
Vetar: Z 7 km/h
Temperatura: 8°C
Osećaj hladnoće: 7°C
Tačka rose: 6°C
Vlažnost: 87%
Pritisak: 1028 hPa
Pregled: Light Rain
Oblaci: Oblačno
Vidljivost: 6 km
Cloud details: Few Clouds 701 m
Partly Cloudy 1219 m
Oblačno 2438 m
2020/01/25 11:00 LYPG 251100Z 26004KT 6000 -RA FEW023 SCT040 OVC080 08/06 Q1028 NOSIG
LQSA - Sarajevo, Bosna i Hercegovina
Ažurirano: 25/01/2020 12:00
Mist, Few clouds
Mist, Few clouds
 Pravac vetra varies
Vetar: varies 4 km/h
Temperatura: 7°C
Tačka rose: 0°C
Vlažnost: 61%
Pritisak: 1024 hPa
Pregled: Mist
Oblaci: Few Clouds
Vidljivost: 3 km
Cloud details: Few Clouds 1219 m
2020/01/25 11:00 LQSA 251100Z VRB02KT 3000 BR FEW040 07/00 Q1024 BECMG 5000
LDOS - Osijek, Hrvatksa
Ažurirano: 25/01/2020 12:00
Mist, Delimično oblačno
Mist, Delimično oblačno
 Pravac vetra varies
Vetar: varies 4 km/h
Temperatura: 0°C
Tačka rose: 0°C
Vlažnost: 100%
Pritisak: 1025 hPa
Pregled: Mist
Oblaci: Partly Cloudy
Vidljivost: 5 km
2020/01/25 11:00 LDOS 251100Z VRB02KT 5000 BR NSC 00/M00 Q1025